EGEC/CAL METAR and TAF weather

Enter ICAO airport designator
Station Type Date Time Source
EGEC METAR 2019/04/25 15:50 UTC NOAA

EGEC 251550Z 10012KT 9999 BKN033 12/08 Q0995


Station Type Date Time Source
EGEC Decoded METAR 2019/04/25 15:50 UTC NOAA

Campbeltown, United Kingdom (EGEC) 55-26-14N 005-41-11W
Apr 25, 2019 - 11:50 AM EDT / 2019.04.25 1550 UTC
Wind: from the E (100 degrees) at 14 MPH (12 KT):0
Visibility: greater than 7 mile(s):0
Sky conditions: mostly cloudy
Temperature: 53 F (12 C)
Dew Point: 46 F (8 C)
Relative Humidity: 76%
Pressure (altimeter): 29.38 in. Hg (0995 hPa)
ob: EGEC 251550Z 10012KT 9999 BKN033 12/08 Q0995
cycle: 16

Station Type Date Time Source
EGEC TAF UTC NOAA

Error!

Example: see airport list